sensor_id;sensor_type;location;lat;lon;timestamp;temperature;humidity
60234;DHT22;49514;43.538;-5.708;2022-07-01T00:01:36;17.20;99.90
60234;DHT22;49514;43.538;-5.708;2022-07-01T00:04:21;17.20;99.90
60234;DHT22;49514;43.538;-5.708;2022-07-01T00:06:47;17.10;99.90
60234;DHT22;49514;43.538;-5.708;2022-07-01T00:09:14;17.10;99.90
60234;DHT22;49514;43.538;-5.708;2022-07-01T00:11:40;17.00;99.90
60234;DHT22;49514;43.538;-5.708;2022-07-01T00:14:07;17.00;99.90
60234;DHT22;49514;43.538;-5.708;2022-07-01T00:16:33;16.80;99.90
60234;DHT22;49514;43.538;-5.708;2022-07-01T00:19:00;16.80;99.90
60234;DHT22;49514;43.538;-5.708;2022-07-01T00:21:27;16.70;99.90
60234;DHT22;49514;43.538;-5.708;2022-07-01T00:23:53;16.70;99.90
60234;DHT22;49514;43.538;-5.708;2022-07-01T00:26:20;16.60;99.90
60234;DHT22;49514;43.538;-5.708;2022-07-01T00:28:46;16.60;99.90
60234;DHT22;49514;43.538;-5.708;2022-07-01T00:31:13;16.60;99.90
60234;DHT22;49514;43.538;-5.708;2022-07-01T00:33:39;16.50;99.90
60234;DHT22;49514;43.538;-5.708;2022-07-01T00:36:05;16.50;99.90
60234;DHT22;49514;43.538;-5.708;2022-07-01T00:38:32;16.40;99.90
60234;DHT22;49514;43.538;-5.708;2022-07-01T00:40:58;16.40;99.90
60234;DHT22;49514;43.538;-5.708;2022-07-01T00:43:25;16.30;99.90
60234;DHT22;49514;43.538;-5.708;2022-07-01T00:45:52;16.30;99.90
60234;DHT22;49514;43.538;-5.708;2022-07-01T00:48:19;16.20;99.90
60234;DHT22;49514;43.538;-5.708;2022-07-01T00:50:45;16.20;99.90
60234;DHT22;49514;43.538;-5.708;2022-07-01T00:53:12;16.10;99.90
60234;DHT22;49514;43.538;-5.708;2022-07-01T00:55:39;16.00;99.90
60234;DHT22;49514;43.538;-5.708;2022-07-01T00:58:07;16.00;99.90
60234;DHT22;49514;43.538;-5.708;2022-07-01T01:00:33;16.00;99.90
60234;DHT22;49514;43.538;-5.708;2022-07-01T01:03:00;15.90;99.90
60234;DHT22;49514;43.538;-5.708;2022-07-01T01:05:26;15.90;99.90
60234;DHT22;49514;43.538;-5.708;2022-07-01T01:07:53;15.80;99.90
60234;DHT22;49514;43.538;-5.708;2022-07-01T01:10:21;15.80;99.90
60234;DHT22;49514;43.538;-5.708;2022-07-01T01:12:49;15.70;99.90
60234;DHT22;49514;43.538;-5.708;2022-07-01T01:15:19;15.70;99.90
60234;DHT22;49514;43.538;-5.708;2022-07-01T01:17:46;15.70;99.90
60234;DHT22;49514;43.538;-5.708;2022-07-01T01:20:16;15.60;99.90
60234;DHT22;49514;43.538;-5.708;2022-07-01T01:22:43;15.60;99.90
60234;DHT22;49514;43.538;-5.708;2022-07-01T01:25:10;15.50;99.90
60234;DHT22;49514;43.538;-5.708;2022-07-01T01:27:36;15.50;99.90
60234;DHT22;49514;43.538;-5.708;2022-07-01T01:30:04;15.50;99.90
60234;DHT22;49514;43.538;-5.708;2022-07-01T01:32:31;15.50;99.90
60234;DHT22;49514;43.538;-5.708;2022-07-01T01:34:57;15.40;99.90
60234;DHT22;49514;43.538;-5.708;2022-07-01T01:37:24;15.50;99.90
60234;DHT22;49514;43.538;-5.708;2022-07-01T01:39:50;15.40;99.90
60234;DHT22;49514;43.538;-5.708;2022-07-01T01:42:16;15.40;99.90
60234;DHT22;49514;43.538;-5.708;2022-07-01T01:44:43;15.40;99.90
60234;DHT22;49514;43.538;-5.708;2022-07-01T01:47:09;15.30;99.90
60234;DHT22;49514;43.538;-5.708;2022-07-01T01:49:35;15.30;99.90
60234;DHT22;49514;43.538;-5.708;2022-07-01T01:52:02;15.20;99.90
60234;DHT22;49514;43.538;-5.708;2022-07-01T01:54:28;15.20;99.90
60234;DHT22;49514;43.538;-5.708;2022-07-01T01:56:55;15.20;99.90
60234;DHT22;49514;43.538;-5.708;2022-07-01T01:59:21;15.10;99.90
60234;DHT22;49514;43.538;-5.708;2022-07-01T02:01:48;15.10;99.90
60234;DHT22;49514;43.538;-5.708;2022-07-01T02:04:14;15.10;99.90
60234;DHT22;49514;43.538;-5.708;2022-07-01T02:06:41;15.10;99.90
60234;DHT22;49514;43.538;-5.708;2022-07-01T02:09:08;15.20;99.90
60234;DHT22;49514;43.538;-5.708;2022-07-01T02:11:37;15.20;99.90
60234;DHT22;49514;43.538;-5.708;2022-07-01T02:14:03;15.20;99.90
60234;DHT22;49514;43.538;-5.708;2022-07-01T02:16:30;15.30;99.90
60234;DHT22;49514;43.538;-5.708;2022-07-01T02:18:57;15.30;99.90
60234;DHT22;49514;43.538;-5.708;2022-07-01T02:21:23;15.30;99.90
60234;DHT22;49514;43.538;-5.708;2022-07-01T02:23:49;15.20;99.90
60234;DHT22;49514;43.538;-5.708;2022-07-01T02:26:18;15.20;99.90
60234;DHT22;49514;43.538;-5.708;2022-07-01T02:28:45;15.10;99.90
60234;DHT22;49514;43.538;-5.708;2022-07-01T02:31:11;15.10;99.90
60234;DHT22;49514;43.538;-5.708;2022-07-01T02:33:38;15.00;99.90
60234;DHT22;49514;43.538;-5.708;2022-07-01T02:36:05;15.00;99.90
60234;DHT22;49514;43.538;-5.708;2022-07-01T02:38:31;14.90;99.90
60234;DHT22;49514;43.538;-5.708;2022-07-01T02:40:58;14.90;99.90
60234;DHT22;49514;43.538;-5.708;2022-07-01T02:43:24;14.80;99.90
60234;DHT22;49514;43.538;-5.708;2022-07-01T02:45:51;14.80;99.90
60234;DHT22;49514;43.538;-5.708;2022-07-01T02:48:17;14.80;99.90
60234;DHT22;49514;43.538;-5.708;2022-07-01T02:50:43;14.70;99.90
60234;DHT22;49514;43.538;-5.708;2022-07-01T02:53:10;14.80;99.90
60234;DHT22;49514;43.538;-5.708;2022-07-01T02:55:36;14.70;99.90
60234;DHT22;49514;43.538;-5.708;2022-07-01T02:58:02;14.60;99.90
60234;DHT22;49514;43.538;-5.708;2022-07-01T03:00:42;14.60;99.90
60234;DHT22;49514;43.538;-5.708;2022-07-01T03:03:09;14.60;99.90
60234;DHT22;49514;43.538;-5.708;2022-07-01T03:05:35;14.50;99.90
60234;DHT22;49514;43.538;-5.708;2022-07-01T03:08:02;14.50;99.90
60234;DHT22;49514;43.538;-5.708;2022-07-01T03:10:28;14.50;99.90
60234;DHT22;49514;43.538;-5.708;2022-07-01T03:12:54;14.40;99.90
60234;DHT22;49514;43.538;-5.708;2022-07-01T03:15:21;14.40;99.90
60234;DHT22;49514;43.538;-5.708;2022-07-01T03:17:48;14.30;99.90
60234;DHT22;49514;43.538;-5.708;2022-07-01T03:20:15;14.30;99.90
60234;DHT22;49514;43.538;-5.708;2022-07-01T03:23:33;14.30;99.90
60234;DHT22;49514;43.538;-5.708;2022-07-01T03:26:00;14.20;99.90
60234;DHT22;49514;43.538;-5.708;2022-07-01T03:28:26;14.20;99.90
60234;DHT22;49514;43.538;-5.708;2022-07-01T03:30:53;14.10;99.90
60234;DHT22;49514;43.538;-5.708;2022-07-01T03:33:19;14.20;99.90
60234;DHT22;49514;43.538;-5.708;2022-07-01T03:35:45;14.10;99.90
60234;DHT22;49514;43.538;-5.708;2022-07-01T03:38:12;14.10;99.90
60234;DHT22;49514;43.538;-5.708;2022-07-01T03:40:38;14.10;99.90
60234;DHT22;49514;43.538;-5.708;2022-07-01T03:43:04;14.10;99.90
60234;DHT22;49514;43.538;-5.708;2022-07-01T03:45:31;14.00;99.90
60234;DHT22;49514;43.538;-5.708;2022-07-01T03:47:57;14.00;99.90
60234;DHT22;49514;43.538;-5.708;2022-07-01T03:50:24;14.10;99.90
60234;DHT22;49514;43.538;-5.708;2022-07-01T03:52:51;14.00;99.90
60234;DHT22;49514;43.538;-5.708;2022-07-01T03:55:37;14.00;99.90
60234;DHT22;49514;43.538;-5.708;2022-07-01T03:58:04;14.00;99.90
60234;DHT22;49514;43.538;-5.708;2022-07-01T04:00:32;13.90;99.90
60234;DHT22;49514;43.538;-5.708;2022-07-01T04:02:59;13.90;99.90
60234;DHT22;49514;43.538;-5.708;2022-07-01T04:05:26;13.90;99.90
60234;DHT22;49514;43.538;-5.708;2022-07-01T04:07:52;13.80;99.90
60234;DHT22;49514;43.538;-5.708;2022-07-01T04:10:18;13.80;99.90
60234;DHT22;49514;43.538;-5.708;2022-07-01T04:12:45;13.80;99.90
60234;DHT22;49514;43.538;-5.708;2022-07-01T04:15:11;13.80;99.90
60234;DHT22;49514;43.538;-5.708;2022-07-01T04:17:38;13.80;99.90
60234;DHT22;49514;43.538;-5.708;2022-07-01T04:20:04;13.80;99.90
60234;DHT22;49514;43.538;-5.708;2022-07-01T04:22:30;13.90;99.90
60234;DHT22;49514;43.538;-5.708;2022-07-01T04:25:00;13.90;99.90
60234;DHT22;49514;43.538;-5.708;2022-07-01T04:27:27;13.90;99.90
60234;DHT22;49514;43.538;-5.708;2022-07-01T04:29:53;13.80;99.90
60234;DHT22;49514;43.538;-5.708;2022-07-01T04:32:19;13.80;99.90
60234;DHT22;49514;43.538;-5.708;2022-07-01T04:34:46;13.80;99.90
60234;DHT22;49514;43.538;-5.708;2022-07-01T04:37:12;13.80;99.90
60234;DHT22;49514;43.538;-5.708;2022-07-01T04:39:39;13.70;99.90
60234;DHT22;49514;43.538;-5.708;2022-07-01T04:42:06;13.80;99.90
60234;DHT22;49514;43.538;-5.708;2022-07-01T04:44:36;13.80;99.90
60234;DHT22;49514;43.538;-5.708;2022-07-01T04:47:03;13.70;99.90
60234;DHT22;49514;43.538;-5.708;2022-07-01T04:49:30;13.70;99.90
60234;DHT22;49514;43.538;-5.708;2022-07-01T04:51:56;13.70;99.90
60234;DHT22;49514;43.538;-5.708;2022-07-01T04:54:23;13.80;99.90
60234;DHT22;49514;43.538;-5.708;2022-07-01T04:56:51;13.70;99.90
60234;DHT22;49514;43.538;-5.708;2022-07-01T04:59:18;13.70;99.90
60234;DHT22;49514;43.538;-5.708;2022-07-01T05:01:45;13.70;99.90
60234;DHT22;49514;43.538;-5.708;2022-07-01T05:04:15;13.80;99.90
60234;DHT22;49514;43.538;-5.708;2022-07-01T05:06:41;13.80;99.90
60234;DHT22;49514;43.538;-5.708;2022-07-01T05:09:08;13.80;99.90
60234;DHT22;49514;43.538;-5.708;2022-07-01T05:11:34;13.80;99.90
60234;DHT22;49514;43.538;-5.708;2022-07-01T05:14:00;13.80;99.90
60234;DHT22;49514;43.538;-5.708;2022-07-01T05:16:27;13.90;99.90
60234;DHT22;49514;43.538;-5.708;2022-07-01T05:18:53;13.90;99.90
60234;DHT22;49514;43.538;-5.708;2022-07-01T05:21:38;13.90;99.90
60234;DHT22;49514;43.538;-5.708;2022-07-01T05:24:23;14.00;99.90
60234;DHT22;49514;43.538;-5.708;2022-07-01T05:26:49;14.00;99.90
60234;DHT22;49514;43.538;-5.708;2022-07-01T05:29:16;14.10;99.90
60234;DHT22;49514;43.538;-5.708;2022-07-01T05:31:42;14.10;99.90
60234;DHT22;49514;43.538;-5.708;2022-07-01T05:34:09;14.10;99.90
60234;DHT22;49514;43.538;-5.708;2022-07-01T05:36:35;14.20;99.90
60234;DHT22;49514;43.538;-5.708;2022-07-01T05:39:02;14.20;99.90
60234;DHT22;49514;43.538;-5.708;2022-07-01T05:41:28;14.30;99.90
60234;DHT22;49514;43.538;-5.708;2022-07-01T05:43:55;14.20;99.90
60234;DHT22;49514;43.538;-5.708;2022-07-01T05:46:21;14.30;99.90
60234;DHT22;49514;43.538;-5.708;2022-07-01T05:48:48;14.30;99.90
60234;DHT22;49514;43.538;-5.708;2022-07-01T05:51:14;14.30;99.90
60234;DHT22;49514;43.538;-5.708;2022-07-01T05:53:40;14.40;99.90
60234;DHT22;49514;43.538;-5.708;2022-07-01T05:56:09;14.40;99.90
60234;DHT22;49514;43.538;-5.708;2022-07-01T05:58:35;14.40;99.90
60234;DHT22;49514;43.538;-5.708;2022-07-01T06:01:02;14.40;99.90
60234;DHT22;49514;43.538;-5.708;2022-07-01T06:03:28;14.40;99.90
60234;DHT22;49514;43.538;-5.708;2022-07-01T06:05:54;14.50;99.90
60234;DHT22;49514;43.538;-5.708;2022-07-01T06:08:21;14.50;99.90
60234;DHT22;49514;43.538;-5.708;2022-07-01T06:10:47;14.60;99.90
60234;DHT22;49514;43.538;-5.708;2022-07-01T06:13:14;14.60;99.90
60234;DHT22;49514;43.538;-5.708;2022-07-01T06:15:41;14.60;99.90
60234;DHT22;49514;43.538;-5.708;2022-07-01T06:18:07;14.70;99.90
60234;DHT22;49514;43.538;-5.708;2022-07-01T06:20:33;14.70;99.90
60234;DHT22;49514;43.538;-5.708;2022-07-01T06:23:00;14.80;99.90
60234;DHT22;49514;43.538;-5.708;2022-07-01T06:25:26;14.80;99.90
60234;DHT22;49514;43.538;-5.708;2022-07-01T06:27:53;14.90;99.90
60234;DHT22;49514;43.538;-5.708;2022-07-01T06:30:19;14.90;99.90
60234;DHT22;49514;43.538;-5.708;2022-07-01T06:32:46;14.90;99.90
60234;DHT22;49514;43.538;-5.708;2022-07-01T06:35:12;15.00;99.90
60234;DHT22;49514;43.538;-5.708;2022-07-01T06:37:38;15.10;99.90
60234;DHT22;49514;43.538;-5.708;2022-07-01T06:40:05;15.10;99.90
60234;DHT22;49514;43.538;-5.708;2022-07-01T06:42:33;15.10;99.90
60234;DHT22;49514;43.538;-5.708;2022-07-01T06:44:59;15.10;99.90
60234;DHT22;49514;43.538;-5.708;2022-07-01T06:47:26;15.20;99.90
60234;DHT22;49514;43.538;-5.708;2022-07-01T06:49:52;15.20;99.90
60234;DHT22;49514;43.538;-5.708;2022-07-01T06:52:18;15.30;99.90
60234;DHT22;49514;43.538;-5.708;2022-07-01T06:54:45;15.20;99.90
60234;DHT22;49514;43.538;-5.708;2022-07-01T06:57:11;15.30;99.90
60234;DHT22;49514;43.538;-5.708;2022-07-01T06:59:38;15.30;99.90
60234;DHT22;49514;43.538;-5.708;2022-07-01T07:02:04;15.30;99.90
60234;DHT22;49514;43.538;-5.708;2022-07-01T07:04:33;15.40;99.90
60234;DHT22;49514;43.538;-5.708;2022-07-01T07:07:00;15.40;99.90
60234;DHT22;49514;43.538;-5.708;2022-07-01T07:09:27;15.50;99.90
60234;DHT22;49514;43.538;-5.708;2022-07-01T07:11:54;15.50;99.90
60234;DHT22;49514;43.538;-5.708;2022-07-01T07:14:20;15.50;99.90
60234;DHT22;49514;43.538;-5.708;2022-07-01T07:16:46;15.50;99.90
60234;DHT22;49514;43.538;-5.708;2022-07-01T07:19:13;15.60;99.90
60234;DHT22;49514;43.538;-5.708;2022-07-01T07:21:39;15.60;99.90
60234;DHT22;49514;43.538;-5.708;2022-07-01T07:24:06;15.70;99.90
60234;DHT22;49514;43.538;-5.708;2022-07-01T07:26:32;15.70;99.90
60234;DHT22;49514;43.538;-5.708;2022-07-01T07:28:59;15.80;99.90
60234;DHT22;49514;43.538;-5.708;2022-07-01T07:31:25;15.80;99.90
60234;DHT22;49514;43.538;-5.708;2022-07-01T07:33:51;15.80;99.90
60234;DHT22;49514;43.538;-5.708;2022-07-01T07:36:18;15.90;99.90
60234;DHT22;49514;43.538;-5.708;2022-07-01T07:38:44;15.90;99.90
60234;DHT22;49514;43.538;-5.708;2022-07-01T07:41:10;15.90;99.90
60234;DHT22;49514;43.538;-5.708;2022-07-01T07:43:37;15.90;99.90
60234;DHT22;49514;43.538;-5.708;2022-07-01T07:46:03;16.00;99.90
60234;DHT22;49514;43.538;-5.708;2022-07-01T07:48:31;16.00;99.90
60234;DHT22;49514;43.538;-5.708;2022-07-01T07:50:57;16.10;99.90
60234;DHT22;49514;43.538;-5.708;2022-07-01T07:53:23;16.10;99.90
60234;DHT22;49514;43.538;-5.708;2022-07-01T07:55:50;16.10;99.90
60234;DHT22;49514;43.538;-5.708;2022-07-01T07:58:16;16.20;99.90
60234;DHT22;49514;43.538;-5.708;2022-07-01T08:00:43;16.20;99.90
60234;DHT22;49514;43.538;-5.708;2022-07-01T08:03:09;16.30;99.90
60234;DHT22;49514;43.538;-5.708;2022-07-01T08:05:36;16.30;99.90
60234;DHT22;49514;43.538;-5.708;2022-07-01T08:08:02;16.30;99.90
60234;DHT22;49514;43.538;-5.708;2022-07-01T08:10:29;16.30;99.90
60234;DHT22;49514;43.538;-5.708;2022-07-01T08:12:55;16.30;99.90
60234;DHT22;49514;43.538;-5.708;2022-07-01T08:15:23;16.40;99.90
60234;DHT22;49514;43.538;-5.708;2022-07-01T08:17:49;16.40;99.90
60234;DHT22;49514;43.538;-5.708;2022-07-01T08:20:15;16.50;99.90
60234;DHT22;49514;43.538;-5.708;2022-07-01T08:30:02;16.70;99.90
60234;DHT22;49514;43.538;-5.708;2022-07-01T08:32:29;16.80;99.90
60234;DHT22;49514;43.538;-5.708;2022-07-01T08:34:56;16.80;99.90
60234;DHT22;49514;43.538;-5.708;2022-07-01T08:37:23;16.80;99.90
60234;DHT22;49514;43.538;-5.708;2022-07-01T08:39:49;16.80;99.90
60234;DHT22;49514;43.538;-5.708;2022-07-01T08:42:16;16.80;99.90
60234;DHT22;49514;43.538;-5.708;2022-07-01T08:44:42;16.90;99.90
60234;DHT22;49514;43.538;-5.708;2022-07-01T08:47:12;16.90;99.90
60234;DHT22;49514;43.538;-5.708;2022-07-01T08:49:39;17.00;99.90
60234;DHT22;49514;43.538;-5.708;2022-07-01T08:52:06;17.00;99.90
60234;DHT22;49514;43.538;-5.708;2022-07-01T08:54:34;17.00;99.90
60234;DHT22;49514;43.538;-5.708;2022-07-01T08:57:00;17.00;99.90
60234;DHT22;49514;43.538;-5.708;2022-07-01T08:59:26;17.00;99.90
60234;DHT22;49514;43.538;-5.708;2022-07-01T09:01:58;17.00;99.90
60234;DHT22;49514;43.538;-5.708;2022-07-01T09:04:25;17.00;99.90
60234;DHT22;49514;43.538;-5.708;2022-07-01T09:06:51;17.00;99.90
60234;DHT22;49514;43.538;-5.708;2022-07-01T09:09:23;17.10;99.90
60234;DHT22;49514;43.538;-5.708;2022-07-01T09:11:53;17.10;99.90
60234;DHT22;49514;43.538;-5.708;2022-07-01T09:14:20;17.10;99.90
60234;DHT22;49514;43.538;-5.708;2022-07-01T09:16:48;17.10;99.90
60234;DHT22;49514;43.538;-5.708;2022-07-01T09:19:16;17.10;99.90
60234;DHT22;49514;43.538;-5.708;2022-07-01T09:21:44;17.10;99.90
60234;DHT22;49514;43.538;-5.708;2022-07-01T09:26:52;17.20;99.90
60234;DHT22;49514;43.538;-5.708;2022-07-01T09:29:19;17.20;99.90
60234;DHT22;49514;43.538;-5.708;2022-07-01T09:31:49;17.20;99.90
60234;DHT22;49514;43.538;-5.708;2022-07-01T09:34:15;17.30;99.90
60234;DHT22;49514;43.538;-5.708;2022-07-01T09:36:50;17.30;99.90
60234;DHT22;49514;43.538;-5.708;2022-07-01T09:39:17;17.40;99.90
60234;DHT22;49514;43.538;-5.708;2022-07-01T09:41:43;17.50;99.90
60234;DHT22;49514;43.538;-5.708;2022-07-01T09:44:10;17.50;99.90
60234;DHT22;49514;43.538;-5.708;2022-07-01T09:46:51;17.60;99.90
60234;DHT22;49514;43.538;-5.708;2022-07-01T09:49:19;17.60;99.90
60234;DHT22;49514;43.538;-5.708;2022-07-01T09:51:46;17.70;99.90
60234;DHT22;49514;43.538;-5.708;2022-07-01T09:54:15;17.60;99.90
60234;DHT22;49514;43.538;-5.708;2022-07-01T09:56:41;17.70;99.90
60234;DHT22;49514;43.538;-5.708;2022-07-01T09:59:08;17.70;99.90
60234;DHT22;49514;43.538;-5.708;2022-07-01T10:01:34;17.70;99.90
60234;DHT22;49514;43.538;-5.708;2022-07-01T10:04:02;17.80;99.90
60234;DHT22;49514;43.538;-5.708;2022-07-01T10:09:09;17.80;99.90
60234;DHT22;49514;43.538;-5.708;2022-07-01T10:14:14;17.90;99.90
60234;DHT22;49514;43.538;-5.708;2022-07-01T10:16:41;17.90;99.90
60234;DHT22;49514;43.538;-5.708;2022-07-01T10:21:46;18.00;99.90
60234;DHT22;49514;43.538;-5.708;2022-07-01T10:24:14;18.00;99.90
60234;DHT22;49514;43.538;-5.708;2022-07-01T10:26:41;18.00;99.90
60234;DHT22;49514;43.538;-5.708;2022-07-01T10:31:53;18.10;99.90
60234;DHT22;49514;43.538;-5.708;2022-07-01T10:34:20;18.20;99.90
60234;DHT22;49514;43.538;-5.708;2022-07-01T10:37:00;18.20;99.90
60234;DHT22;49514;43.538;-5.708;2022-07-01T10:39:27;18.20;99.90
60234;DHT22;49514;43.538;-5.708;2022-07-01T10:44:20;18.20;99.90
60234;DHT22;49514;43.538;-5.708;2022-07-01T10:49:19;18.20;99.90
60234;DHT22;49514;43.538;-5.708;2022-07-01T10:51:49;18.20;99.90
60234;DHT22;49514;43.538;-5.708;2022-07-01T11:02:24;18.40;99.90
60234;DHT22;49514;43.538;-5.708;2022-07-01T11:04:53;18.40;99.90
60234;DHT22;49514;43.538;-5.708;2022-07-01T11:07:20;18.40;99.90
60234;DHT22;49514;43.538;-5.708;2022-07-01T11:09:47;18.50;99.90
60234;DHT22;49514;43.538;-5.708;2022-07-01T11:12:14;18.50;99.90
60234;DHT22;49514;43.538;-5.708;2022-07-01T11:17:08;18.60;99.90
60234;DHT22;49514;43.538;-5.708;2022-07-01T11:19:34;18.60;99.90
60234;DHT22;49514;43.538;-5.708;2022-07-01T11:22:01;18.70;99.90
60234;DHT22;49514;43.538;-5.708;2022-07-01T11:24:28;18.70;99.90
60234;DHT22;49514;43.538;-5.708;2022-07-01T11:26:57;18.70;99.90
60234;DHT22;49514;43.538;-5.708;2022-07-01T11:29:27;18.80;99.90
60234;DHT22;49514;43.538;-5.708;2022-07-01T11:31:53;18.80;99.90
60234;DHT22;49514;43.538;-5.708;2022-07-01T11:34:20;18.80;99.90
60234;DHT22;49514;43.538;-5.708;2022-07-01T11:36:47;18.90;99.90
60234;DHT22;49514;43.538;-5.708;2022-07-01T11:39:32;18.90;99.90
60234;DHT22;49514;43.538;-5.708;2022-07-01T11:42:00;19.00;99.90
60234;DHT22;49514;43.538;-5.708;2022-07-01T11:44:36;19.00;99.90
60234;DHT22;49514;43.538;-5.708;2022-07-01T11:47:04;19.10;99.90
60234;DHT22;49514;43.538;-5.708;2022-07-01T11:49:32;19.00;99.90
60234;DHT22;49514;43.538;-5.708;2022-07-01T11:51:59;19.10;99.90
60234;DHT22;49514;43.538;-5.708;2022-07-01T11:54:26;19.10;99.90
60234;DHT22;49514;43.538;-5.708;2022-07-01T11:56:53;19.20;99.90
60234;DHT22;49514;43.538;-5.708;2022-07-01T11:59:19;19.30;99.90
60234;DHT22;49514;43.538;-5.708;2022-07-01T12:01:52;19.30;99.90
60234;DHT22;49514;43.538;-5.708;2022-07-01T12:04:20;19.40;99.90
60234;DHT22;49514;43.538;-5.708;2022-07-01T12:06:47;19.40;99.90
60234;DHT22;49514;43.538;-5.708;2022-07-01T12:09:14;19.40;99.90
60234;DHT22;49514;43.538;-5.708;2022-07-01T12:11:47;19.50;99.90
60234;DHT22;49514;43.538;-5.708;2022-07-01T12:14:20;19.60;99.90
60234;DHT22;49514;43.538;-5.708;2022-07-01T12:16:47;19.70;99.90
60234;DHT22;49514;43.538;-5.708;2022-07-01T12:19:16;19.70;99.90
60234;DHT22;49514;43.538;-5.708;2022-07-01T12:22:01;19.90;99.90
60234;DHT22;49514;43.538;-5.708;2022-07-01T12:24:30;20.00;99.90
60234;DHT22;49514;43.538;-5.708;2022-07-01T12:29:29;20.10;99.90
60234;DHT22;49514;43.538;-5.708;2022-07-01T12:31:57;20.20;99.90
60234;DHT22;49514;43.538;-5.708;2022-07-01T12:34:29;20.30;99.90
60234;DHT22;49514;43.538;-5.708;2022-07-01T12:37:02;20.30;99.90
60234;DHT22;49514;43.538;-5.708;2022-07-01T12:39:28;20.50;99.90
60234;DHT22;49514;43.538;-5.708;2022-07-01T12:41:55;20.50;99.90
60234;DHT22;49514;43.538;-5.708;2022-07-01T12:44:24;20.60;99.90
60234;DHT22;49514;43.538;-5.708;2022-07-01T12:46:51;20.70;99.90
60234;DHT22;49514;43.538;-5.708;2022-07-01T12:49:24;20.80;99.90
60234;DHT22;49514;43.538;-5.708;2022-07-01T12:51:51;20.80;99.90
60234;DHT22;49514;43.538;-5.708;2022-07-01T12:54:34;21.00;99.90
60234;DHT22;49514;43.538;-5.708;2022-07-01T12:57:02;21.20;99.90
60234;DHT22;49514;43.538;-5.708;2022-07-01T12:59:28;21.50;99.90
60234;DHT22;49514;43.538;-5.708;2022-07-01T13:01:55;21.80;99.90
60234;DHT22;49514;43.538;-5.708;2022-07-01T13:04:25;22.40;99.90
60234;DHT22;49514;43.538;-5.708;2022-07-01T13:06:52;23.50;99.90
60234;DHT22;49514;43.538;-5.708;2022-07-01T13:09:18;24.40;99.90
60234;DHT22;49514;43.538;-5.708;2022-07-01T13:11:45;25.80;99.90
60234;DHT22;49514;43.538;-5.708;2022-07-01T13:14:12;28.60;99.20
60234;DHT22;49514;43.538;-5.708;2022-07-01T13:16:38;30.50;93.30
60234;DHT22;49514;43.538;-5.708;2022-07-01T13:19:04;32.70;93.10
60234;DHT22;49514;43.538;-5.708;2022-07-01T13:21:31;33.50;80.40
60234;DHT22;49514;43.538;-5.708;2022-07-01T13:23:57;33.60;78.20
60234;DHT22;49514;43.538;-5.708;2022-07-01T13:26:24;35.40;79.00
60234;DHT22;49514;43.538;-5.708;2022-07-01T13:28:50;36.00;68.50
60234;DHT22;49514;43.538;-5.708;2022-07-01T13:31:16;36.70;71.30
60234;DHT22;49514;43.538;-5.708;2022-07-01T13:33:43;39.10;65.00
60234;DHT22;49514;43.538;-5.708;2022-07-01T13:38:39;40.40;55.40
60234;DHT22;49514;43.538;-5.708;2022-07-01T13:41:06;41.50;55.60
60234;DHT22;49514;43.538;-5.708;2022-07-01T13:46:00;42.60;68.00
60234;DHT22;49514;43.538;-5.708;2022-07-01T13:48:26;42.80;52.20
60234;DHT22;49514;43.538;-5.708;2022-07-01T13:50:53;43.40;51.80
60234;DHT22;49514;43.538;-5.708;2022-07-01T13:53:19;43.40;49.60
60234;DHT22;49514;43.538;-5.708;2022-07-01T13:55:46;44.30;50.40
60234;DHT22;49514;43.538;-5.708;2022-07-01T13:58:12;45.70;48.90
60234;DHT22;49514;43.538;-5.708;2022-07-01T14:00:40;45.00;46.70
60234;DHT22;49514;43.538;-5.708;2022-07-01T14:03:06;44.60;47.20
60234;DHT22;49514;43.538;-5.708;2022-07-01T14:05:33;45.00;48.20
60234;DHT22;49514;43.538;-5.708;2022-07-01T14:07:59;45.00;46.20
60234;DHT22;49514;43.538;-5.708;2022-07-01T14:10:26;45.20;47.90
60234;DHT22;49514;43.538;-5.708;2022-07-01T14:12:54;45.00;46.50
60234;DHT22;49514;43.538;-5.708;2022-07-01T14:15:20;44.80;45.40
60234;DHT22;49514;43.538;-5.708;2022-07-01T14:17:47;44.60;46.20
60234;DHT22;49514;43.538;-5.708;2022-07-01T14:20:14;45.70;46.70
60234;DHT22;49514;43.538;-5.708;2022-07-01T14:22:40;47.20;46.50
60234;DHT22;49514;43.538;-5.708;2022-07-01T14:25:07;48.50;46.30
60234;DHT22;49514;43.538;-5.708;2022-07-01T14:27:33;49.50;44.10
60234;DHT22;49514;43.538;-5.708;2022-07-01T14:30:00;49.40;43.50
60234;DHT22;49514;43.538;-5.708;2022-07-01T14:32:26;48.80;42.10
60234;DHT22;49514;43.538;-5.708;2022-07-01T14:34:54;48.30;43.10
60234;DHT22;49514;43.538;-5.708;2022-07-01T14:37:21;47.70;44.10
60234;DHT22;49514;43.538;-5.708;2022-07-01T14:39:48;48.80;43.20
60234;DHT22;49514;43.538;-5.708;2022-07-01T14:42:19;49.80;42.10
60234;DHT22;49514;43.538;-5.708;2022-07-01T14:44:45;50.60;41.50
60234;DHT22;49514;43.538;-5.708;2022-07-01T14:47:12;50.40;41.60
60234;DHT22;49514;43.538;-5.708;2022-07-01T14:49:38;50.00;41.10
60234;DHT22;49514;43.538;-5.708;2022-07-01T14:52:05;50.60;40.30
60234;DHT22;49514;43.538;-5.708;2022-07-01T14:54:31;51.50;41.20
60234;DHT22;49514;43.538;-5.708;2022-07-01T14:56:58;52.20;40.20
60234;DHT22;49514;43.538;-5.708;2022-07-01T14:59:24;51.70;39.60
60234;DHT22;49514;43.538;-5.708;2022-07-01T15:01:50;52.50;39.80
60234;DHT22;49514;43.538;-5.708;2022-07-01T15:06:44;51.60;41.90
60234;DHT22;49514;43.538;-5.708;2022-07-01T15:09:11;51.90;39.30
60234;DHT22;49514;43.538;-5.708;2022-07-01T15:14:04;53.00;37.90
60234;DHT22;49514;43.538;-5.708;2022-07-01T15:18:58;52.40;49.00
60234;DHT22;49514;43.538;-5.708;2022-07-01T15:21:24;52.20;37.90
60234;DHT22;49514;43.538;-5.708;2022-07-01T15:23:52;51.60;38.20
60234;DHT22;49514;43.538;-5.708;2022-07-01T15:26:19;52.20;38.10
60234;DHT22;49514;43.538;-5.708;2022-07-01T15:28:45;52.50;37.80
60234;DHT22;49514;43.538;-5.708;2022-07-01T15:31:11;52.40;37.80
60234;DHT22;49514;43.538;-5.708;2022-07-01T15:36:05;51.30;37.60
60234;DHT22;49514;43.538;-5.708;2022-07-01T15:38:31;51.50;37.80
60234;DHT22;49514;43.538;-5.708;2022-07-01T15:40:58;51.50;37.60
60234;DHT22;49514;43.538;-5.708;2022-07-01T15:43:24;51.50;37.50
60234;DHT22;49514;43.538;-5.708;2022-07-01T15:45:51;51.80;37.40
60234;DHT22;49514;43.538;-5.708;2022-07-01T15:48:17;51.70;37.50
60234;DHT22;49514;43.538;-5.708;2022-07-01T15:50:44;51.40;37.20
60234;DHT22;49514;43.538;-5.708;2022-07-01T15:53:11;51.30;37.90
60234;DHT22;49514;43.538;-5.708;2022-07-01T15:55:40;51.20;37.10
60234;DHT22;49514;43.538;-5.708;2022-07-01T15:58:10;51.50;37.00
60234;DHT22;49514;43.538;-5.708;2022-07-01T16:00:39;51.40;37.40
60234;DHT22;49514;43.538;-5.708;2022-07-01T16:05:32;50.70;36.70
60234;DHT22;49514;43.538;-5.708;2022-07-01T16:08:00;49.60;37.50
60234;DHT22;49514;43.538;-5.708;2022-07-01T16:12:57;50.70;37.00
60234;DHT22;49514;43.538;-5.708;2022-07-01T16:15:24;50.10;37.20